sensor_id;sensor_type;location;lat;lon;timestamp;temperature;humidity
23259;DHT22;11798;51.528;7.240;2022-08-21T00:00:06;17.60;99.90
23259;DHT22;11798;51.528;7.240;2022-08-21T00:02:33;17.60;99.90
23259;DHT22;11798;51.528;7.240;2022-08-21T00:04:58;17.60;99.90
23259;DHT22;11798;51.528;7.240;2022-08-21T00:07:24;17.60;99.90
23259;DHT22;11798;51.528;7.240;2022-08-21T00:09:50;17.70;99.90
23259;DHT22;11798;51.528;7.240;2022-08-21T00:12:15;17.60;99.90
23259;DHT22;11798;51.528;7.240;2022-08-21T00:14:41;17.60;99.90
23259;DHT22;11798;51.528;7.240;2022-08-21T00:17:07;17.60;99.90
23259;DHT22;11798;51.528;7.240;2022-08-21T00:19:33;17.50;99.90
23259;DHT22;11798;51.528;7.240;2022-08-21T00:21:58;17.50;99.90
23259;DHT22;11798;51.528;7.240;2022-08-21T00:24:25;17.40;99.90
23259;DHT22;11798;51.528;7.240;2022-08-21T00:26:51;17.40;99.90
23259;DHT22;11798;51.528;7.240;2022-08-21T00:29:17;17.40;99.90
23259;DHT22;11798;51.528;7.240;2022-08-21T00:31:43;17.40;99.90
23259;DHT22;11798;51.528;7.240;2022-08-21T00:34:10;17.40;99.90
23259;DHT22;11798;51.528;7.240;2022-08-21T00:36:36;17.40;99.90
23259;DHT22;11798;51.528;7.240;2022-08-21T00:39:04;17.30;99.90
23259;DHT22;11798;51.528;7.240;2022-08-21T00:41:30;17.30;99.90
23259;DHT22;11798;51.528;7.240;2022-08-21T00:43:56;17.30;99.90
23259;DHT22;11798;51.528;7.240;2022-08-21T00:46:22;17.30;99.90
23259;DHT22;11798;51.528;7.240;2022-08-21T00:48:48;17.20;99.90
23259;DHT22;11798;51.528;7.240;2022-08-21T00:51:20;17.20;99.90
23259;DHT22;11798;51.528;7.240;2022-08-21T00:53:51;17.20;99.90
23259;DHT22;11798;51.528;7.240;2022-08-21T00:56:19;17.20;99.90
23259;DHT22;11798;51.528;7.240;2022-08-21T00:58:47;17.10;99.90
23259;DHT22;11798;51.528;7.240;2022-08-21T01:01:13;17.10;99.90
23259;DHT22;11798;51.528;7.240;2022-08-21T01:03:39;17.10;99.90
23259;DHT22;11798;51.528;7.240;2022-08-21T01:06:06;17.20;99.90
23259;DHT22;11798;51.528;7.240;2022-08-21T01:08:32;17.20;99.90
23259;DHT22;11798;51.528;7.240;2022-08-21T01:10:59;17.20;99.90
23259;DHT22;11798;51.528;7.240;2022-08-21T01:13:26;17.20;99.90
23259;DHT22;11798;51.528;7.240;2022-08-21T01:15:54;17.10;99.90
23259;DHT22;11798;51.528;7.240;2022-08-21T01:18:22;17.00;99.90
23259;DHT22;11798;51.528;7.240;2022-08-21T01:21:01;17.00;99.90
23259;DHT22;11798;51.528;7.240;2022-08-21T01:23:27;17.00;99.90
23259;DHT22;11798;51.528;7.240;2022-08-21T01:25:56;17.10;99.90
23259;DHT22;11798;51.528;7.240;2022-08-21T01:28:24;17.00;99.90
23259;DHT22;11798;51.528;7.240;2022-08-21T01:30:51;17.10;99.90
23259;DHT22;11798;51.528;7.240;2022-08-21T01:33:20;17.10;99.90
23259;DHT22;11798;51.528;7.240;2022-08-21T01:35:47;17.10;99.90
23259;DHT22;11798;51.528;7.240;2022-08-21T01:38:13;17.10;99.90
23259;DHT22;11798;51.528;7.240;2022-08-21T01:40:38;17.10;99.90
23259;DHT22;11798;51.528;7.240;2022-08-21T01:43:04;17.00;99.90
23259;DHT22;11798;51.528;7.240;2022-08-21T01:45:30;17.00;99.90
23259;DHT22;11798;51.528;7.240;2022-08-21T01:47:56;17.00;99.90
23259;DHT22;11798;51.528;7.240;2022-08-21T01:50:22;16.90;99.90
23259;DHT22;11798;51.528;7.240;2022-08-21T01:52:49;16.90;99.90
23259;DHT22;11798;51.528;7.240;2022-08-21T01:55:16;16.90;99.90
23259;DHT22;11798;51.528;7.240;2022-08-21T01:57:43;16.90;99.90
23259;DHT22;11798;51.528;7.240;2022-08-21T02:00:12;16.90;99.90
23259;DHT22;11798;51.528;7.240;2022-08-21T02:02:38;16.80;99.90
23259;DHT22;11798;51.528;7.240;2022-08-21T02:05:05;16.80;99.90
23259;DHT22;11798;51.528;7.240;2022-08-21T02:07:50;16.70;99.90
23259;DHT22;11798;51.528;7.240;2022-08-21T02:10:22;16.70;99.90
23259;DHT22;11798;51.528;7.240;2022-08-21T02:12:47;16.70;99.90
23259;DHT22;11798;51.528;7.240;2022-08-21T02:15:14;16.70;99.90
23259;DHT22;11798;51.528;7.240;2022-08-21T02:17:49;16.70;99.90
23259;DHT22;11798;51.528;7.240;2022-08-21T02:20:19;16.60;99.90
23259;DHT22;11798;51.528;7.240;2022-08-21T02:22:45;16.50;99.90
23259;DHT22;11798;51.528;7.240;2022-08-21T02:25:11;16.60;99.90
23259;DHT22;11798;51.528;7.240;2022-08-21T02:27:42;16.50;99.90
23259;DHT22;11798;51.528;7.240;2022-08-21T02:30:13;16.50;99.90
23259;DHT22;11798;51.528;7.240;2022-08-21T02:32:39;16.40;99.90
23259;DHT22;11798;51.528;7.240;2022-08-21T02:35:07;16.40;99.90
23259;DHT22;11798;51.528;7.240;2022-08-21T02:37:33;16.40;99.90
23259;DHT22;11798;51.528;7.240;2022-08-21T02:40:00;16.40;99.90
23259;DHT22;11798;51.528;7.240;2022-08-21T02:42:26;16.40;99.90
23259;DHT22;11798;51.528;7.240;2022-08-21T02:44:52;16.30;99.90
23259;DHT22;11798;51.528;7.240;2022-08-21T02:47:17;16.30;99.90
23259;DHT22;11798;51.528;7.240;2022-08-21T02:49:43;16.30;99.90
23259;DHT22;11798;51.528;7.240;2022-08-21T02:52:08;16.20;99.90
23259;DHT22;11798;51.528;7.240;2022-08-21T02:54:34;16.20;99.90
23259;DHT22;11798;51.528;7.240;2022-08-21T02:57:00;16.20;99.90
23259;DHT22;11798;51.528;7.240;2022-08-21T02:59:25;16.20;99.90
23259;DHT22;11798;51.528;7.240;2022-08-21T03:01:51;16.10;99.90
23259;DHT22;11798;51.528;7.240;2022-08-21T03:04:16;16.20;99.90
23259;DHT22;11798;51.528;7.240;2022-08-21T03:06:42;16.20;99.90
23259;DHT22;11798;51.528;7.240;2022-08-21T03:09:08;16.20;99.90
23259;DHT22;11798;51.528;7.240;2022-08-21T03:11:33;16.10;99.90
23259;DHT22;11798;51.528;7.240;2022-08-21T03:13:59;16.10;99.90
23259;DHT22;11798;51.528;7.240;2022-08-21T03:16:25;16.10;99.90
23259;DHT22;11798;51.528;7.240;2022-08-21T03:18:51;16.10;99.90
23259;DHT22;11798;51.528;7.240;2022-08-21T03:21:18;16.00;99.90
23259;DHT22;11798;51.528;7.240;2022-08-21T03:23:44;16.10;99.90
23259;DHT22;11798;51.528;7.240;2022-08-21T03:26:09;16.10;99.90
23259;DHT22;11798;51.528;7.240;2022-08-21T03:28:36;16.00;99.90
23259;DHT22;11798;51.528;7.240;2022-08-21T03:31:02;16.00;99.90
23259;DHT22;11798;51.528;7.240;2022-08-21T03:33:28;16.00;99.90
23259;DHT22;11798;51.528;7.240;2022-08-21T03:36:05;16.00;99.90
23259;DHT22;11798;51.528;7.240;2022-08-21T03:38:32;16.00;99.90
23259;DHT22;11798;51.528;7.240;2022-08-21T03:40:59;16.00;99.90
23259;DHT22;11798;51.528;7.240;2022-08-21T03:43:26;16.00;99.90
23259;DHT22;11798;51.528;7.240;2022-08-21T03:45:52;16.00;99.90
23259;DHT22;11798;51.528;7.240;2022-08-21T03:48:18;15.90;99.90
23259;DHT22;11798;51.528;7.240;2022-08-21T03:50:44;15.90;99.90
23259;DHT22;11798;51.528;7.240;2022-08-21T03:53:13;15.80;99.90
23259;DHT22;11798;51.528;7.240;2022-08-21T03:55:38;15.90;99.90
23259;DHT22;11798;51.528;7.240;2022-08-21T03:58:04;15.80;99.90
23259;DHT22;11798;51.528;7.240;2022-08-21T04:00:30;15.80;99.90
23259;DHT22;11798;51.528;7.240;2022-08-21T04:02:56;15.80;99.90
23259;DHT22;11798;51.528;7.240;2022-08-21T04:05:21;15.80;99.90
23259;DHT22;11798;51.528;7.240;2022-08-21T04:07:54;15.70;99.90
23259;DHT22;11798;51.528;7.240;2022-08-21T04:10:20;15.70;99.90
23259;DHT22;11798;51.528;7.240;2022-08-21T04:12:46;15.70;99.90
23259;DHT22;11798;51.528;7.240;2022-08-21T04:15:11;15.70;99.90
23259;DHT22;11798;51.528;7.240;2022-08-21T04:17:38;15.70;99.90
23259;DHT22;11798;51.528;7.240;2022-08-21T04:20:05;15.70;99.90
23259;DHT22;11798;51.528;7.240;2022-08-21T04:22:30;15.70;99.90
23259;DHT22;11798;51.528;7.240;2022-08-21T04:24:56;15.70;99.90
23259;DHT22;11798;51.528;7.240;2022-08-21T04:27:21;15.60;99.90
23259;DHT22;11798;51.528;7.240;2022-08-21T04:29:47;15.70;99.90
23259;DHT22;11798;51.528;7.240;2022-08-21T04:32:12;15.60;99.90
23259;DHT22;11798;51.528;7.240;2022-08-21T04:34:38;15.60;99.90
23259;DHT22;11798;51.528;7.240;2022-08-21T04:37:04;15.60;99.90
23259;DHT22;11798;51.528;7.240;2022-08-21T04:39:29;15.60;99.90
23259;DHT22;11798;51.528;7.240;2022-08-21T04:41:55;15.50;99.90
23259;DHT22;11798;51.528;7.240;2022-08-21T04:44:20;15.50;99.90
23259;DHT22;11798;51.528;7.240;2022-08-21T04:46:46;15.50;99.90
23259;DHT22;11798;51.528;7.240;2022-08-21T04:49:11;15.50;99.90
23259;DHT22;11798;51.528;7.240;2022-08-21T04:51:38;15.50;99.90
23259;DHT22;11798;51.528;7.240;2022-08-21T04:54:12;15.50;99.90
23259;DHT22;11798;51.528;7.240;2022-08-21T04:56:42;15.50;99.90
23259;DHT22;11798;51.528;7.240;2022-08-21T04:59:15;15.50;99.90
23259;DHT22;11798;51.528;7.240;2022-08-21T05:01:43;15.40;99.90
23259;DHT22;11798;51.528;7.240;2022-08-21T05:04:13;15.50;99.90
23259;DHT22;11798;51.528;7.240;2022-08-21T05:06:42;15.50;99.90
23259;DHT22;11798;51.528;7.240;2022-08-21T05:09:09;15.50;99.90
23259;DHT22;11798;51.528;7.240;2022-08-21T05:11:35;15.40;99.90
23259;DHT22;11798;51.528;7.240;2022-08-21T05:14:02;15.50;99.90
23259;DHT22;11798;51.528;7.240;2022-08-21T05:16:28;15.50;99.90
23259;DHT22;11798;51.528;7.240;2022-08-21T05:18:53;15.50;99.90
23259;DHT22;11798;51.528;7.240;2022-08-21T05:21:19;15.60;99.90
23259;DHT22;11798;51.528;7.240;2022-08-21T05:23:46;15.60;99.90
23259;DHT22;11798;51.528;7.240;2022-08-21T05:26:11;15.60;99.90
23259;DHT22;11798;51.528;7.240;2022-08-21T05:28:37;15.70;99.90
23259;DHT22;11798;51.528;7.240;2022-08-21T05:31:03;15.70;99.90
23259;DHT22;11798;51.528;7.240;2022-08-21T05:33:28;15.80;99.90
23259;DHT22;11798;51.528;7.240;2022-08-21T05:35:54;15.80;99.90
23259;DHT22;11798;51.528;7.240;2022-08-21T05:38:25;15.80;99.90
23259;DHT22;11798;51.528;7.240;2022-08-21T05:40:52;15.80;99.90
23259;DHT22;11798;51.528;7.240;2022-08-21T05:43:18;15.80;99.90
23259;DHT22;11798;51.528;7.240;2022-08-21T05:45:45;15.90;99.90
23259;DHT22;11798;51.528;7.240;2022-08-21T05:48:15;15.90;99.90
23259;DHT22;11798;51.528;7.240;2022-08-21T05:50:42;16.00;99.90
23259;DHT22;11798;51.528;7.240;2022-08-21T05:53:08;16.00;99.90
23259;DHT22;11798;51.528;7.240;2022-08-21T05:55:36;16.10;99.90
23259;DHT22;11798;51.528;7.240;2022-08-21T05:58:03;16.10;99.90
23259;DHT22;11798;51.528;7.240;2022-08-21T06:00:29;16.20;99.90
23259;DHT22;11798;51.528;7.240;2022-08-21T06:02:54;16.30;99.90
23259;DHT22;11798;51.528;7.240;2022-08-21T06:05:20;16.40;99.90
23259;DHT22;11798;51.528;7.240;2022-08-21T06:07:45;16.40;99.90
23259;DHT22;11798;51.528;7.240;2022-08-21T06:10:11;16.50;99.90
23259;DHT22;11798;51.528;7.240;2022-08-21T06:12:37;16.50;99.90
23259;DHT22;11798;51.528;7.240;2022-08-21T06:15:03;16.60;99.90
23259;DHT22;11798;51.528;7.240;2022-08-21T06:17:29;16.70;99.90
23259;DHT22;11798;51.528;7.240;2022-08-21T06:19:55;16.80;99.90
23259;DHT22;11798;51.528;7.240;2022-08-21T06:22:21;16.90;99.90
23259;DHT22;11798;51.528;7.240;2022-08-21T06:24:46;17.00;99.90
23259;DHT22;11798;51.528;7.240;2022-08-21T06:27:12;17.10;99.90
23259;DHT22;11798;51.528;7.240;2022-08-21T06:29:38;17.10;99.90
23259;DHT22;11798;51.528;7.240;2022-08-21T06:32:04;17.30;99.90
23259;DHT22;11798;51.528;7.240;2022-08-21T06:34:36;17.40;99.90
23259;DHT22;11798;51.528;7.240;2022-08-21T06:37:03;17.50;99.90
23259;DHT22;11798;51.528;7.240;2022-08-21T06:39:29;17.60;99.90
23259;DHT22;11798;51.528;7.240;2022-08-21T06:41:55;17.60;99.90
23259;DHT22;11798;51.528;7.240;2022-08-21T06:44:20;17.70;99.90
23259;DHT22;11798;51.528;7.240;2022-08-21T06:46:46;17.70;99.90
23259;DHT22;11798;51.528;7.240;2022-08-21T06:49:12;17.80;99.90
23259;DHT22;11798;51.528;7.240;2022-08-21T06:51:38;17.90;99.90
23259;DHT22;11798;51.528;7.240;2022-08-21T06:54:04;18.00;99.90
23259;DHT22;11798;51.528;7.240;2022-08-21T06:56:29;18.00;99.90
23259;DHT22;11798;51.528;7.240;2022-08-21T06:58:55;18.10;99.90
23259;DHT22;11798;51.528;7.240;2022-08-21T07:01:23;18.20;99.90
23259;DHT22;11798;51.528;7.240;2022-08-21T07:03:49;18.20;99.90
23259;DHT22;11798;51.528;7.240;2022-08-21T07:06:15;18.30;99.90
23259;DHT22;11798;51.528;7.240;2022-08-21T07:08:41;18.40;99.90
23259;DHT22;11798;51.528;7.240;2022-08-21T07:11:14;18.50;99.90
23259;DHT22;11798;51.528;7.240;2022-08-21T07:13:41;18.50;99.90
23259;DHT22;11798;51.528;7.240;2022-08-21T07:16:07;18.60;99.90
23259;DHT22;11798;51.528;7.240;2022-08-21T07:18:34;18.60;99.90
23259;DHT22;11798;51.528;7.240;2022-08-21T07:21:01;18.70;99.90
23259;DHT22;11798;51.528;7.240;2022-08-21T07:23:30;18.70;99.90
23259;DHT22;11798;51.528;7.240;2022-08-21T07:25:57;18.80;99.90
23259;DHT22;11798;51.528;7.240;2022-08-21T07:28:24;18.80;99.90
23259;DHT22;11798;51.528;7.240;2022-08-21T07:30:52;18.80;99.90
23259;DHT22;11798;51.528;7.240;2022-08-21T08:13:47;19.40;99.90
23259;DHT22;11798;51.528;7.240;2022-08-21T08:16:13;19.50;99.90
23259;DHT22;11798;51.528;7.240;2022-08-21T08:18:39;19.50;99.90
23259;DHT22;11798;51.528;7.240;2022-08-21T08:21:08;19.60;99.90
23259;DHT22;11798;51.528;7.240;2022-08-21T08:23:34;19.60;99.90
23259;DHT22;11798;51.528;7.240;2022-08-21T08:26:00;19.60;99.90
23259;DHT22;11798;51.528;7.240;2022-08-21T08:28:27;19.70;99.90
23259;DHT22;11798;51.528;7.240;2022-08-21T08:30:53;19.70;99.90
23259;DHT22;11798;51.528;7.240;2022-08-21T08:33:18;19.80;99.90
23259;DHT22;11798;51.528;7.240;2022-08-21T08:35:47;19.90;99.90
23259;DHT22;11798;51.528;7.240;2022-08-21T08:38:13;20.00;99.90
23259;DHT22;11798;51.528;7.240;2022-08-21T08:43:19;20.00;99.90
23259;DHT22;11798;51.528;7.240;2022-08-21T08:45:49;20.10;99.90
23259;DHT22;11798;51.528;7.240;2022-08-21T08:51:21;20.20;99.90
23259;DHT22;11798;51.528;7.240;2022-08-21T08:54:00;20.30;99.90
23259;DHT22;11798;51.528;7.240;2022-08-21T08:56:32;20.40;99.90
23259;DHT22;11798;51.528;7.240;2022-08-21T08:59:07;20.50;99.90
23259;DHT22;11798;51.528;7.240;2022-08-21T09:01:33;20.50;99.90
23259;DHT22;11798;51.528;7.240;2022-08-21T09:03:59;20.60;99.90
23259;DHT22;11798;51.528;7.240;2022-08-21T09:17:09;21.00;99.90
23259;DHT22;11798;51.528;7.240;2022-08-21T09:25:32;21.30;99.90
23259;DHT22;11798;51.528;7.240;2022-08-21T09:27:58;21.40;99.90
23259;DHT22;11798;51.528;7.240;2022-08-21T09:30:30;21.50;99.90
23259;DHT22;11798;51.528;7.240;2022-08-21T09:32:56;21.60;99.90
23259;DHT22;11798;51.528;7.240;2022-08-21T09:35:23;21.60;99.90
23259;DHT22;11798;51.528;7.240;2022-08-21T09:37:55;21.50;99.90
23259;DHT22;11798;51.528;7.240;2022-08-21T09:40:43;21.30;99.90
23259;DHT22;11798;51.528;7.240;2022-08-21T09:45:39;21.20;99.90
23259;DHT22;11798;51.528;7.240;2022-08-21T09:50:35;21.40;99.90
23259;DHT22;11798;51.528;7.240;2022-08-21T09:53:00;21.50;99.90
23259;DHT22;11798;51.528;7.240;2022-08-21T09:55:33;21.70;99.90
23259;DHT22;11798;51.528;7.240;2022-08-21T09:58:19;21.80;99.90
23259;DHT22;11798;51.528;7.240;2022-08-21T10:00:45;21.90;99.90
23259;DHT22;11798;51.528;7.240;2022-08-21T10:03:21;21.90;99.90
23259;DHT22;11798;51.528;7.240;2022-08-21T10:05:56;22.00;99.90
23259;DHT22;11798;51.528;7.240;2022-08-21T10:08:25;22.00;99.90
23259;DHT22;11798;51.528;7.240;2022-08-21T10:10:57;22.10;99.90
23259;DHT22;11798;51.528;7.240;2022-08-21T10:16:24;22.30;99.90
23259;DHT22;11798;51.528;7.240;2022-08-21T10:19:15;22.40;99.90
23259;DHT22;11798;51.528;7.240;2022-08-21T10:22:02;22.40;99.90
23259;DHT22;11798;51.528;7.240;2022-08-21T10:36:21;22.70;99.90
23259;DHT22;11798;51.528;7.240;2022-08-21T10:39:03;22.80;99.90
23259;DHT22;11798;51.528;7.240;2022-08-21T10:44:41;22.90;99.90
23259;DHT22;11798;51.528;7.240;2022-08-21T10:47:17;22.80;99.90
23259;DHT22;11798;51.528;7.240;2022-08-21T10:55:22;22.90;99.90
23259;DHT22;11798;51.528;7.240;2022-08-21T10:58:02;23.00;99.90
23259;DHT22;11798;51.528;7.240;2022-08-21T11:00:58;23.20;99.90
23259;DHT22;11798;51.528;7.240;2022-08-21T11:03:37;23.20;99.90
23259;DHT22;11798;51.528;7.240;2022-08-21T11:06:25;23.30;99.90
23259;DHT22;11798;51.528;7.240;2022-08-21T11:09:09;23.40;99.90
23259;DHT22;11798;51.528;7.240;2022-08-21T11:11:41;23.30;99.90
23259;DHT22;11798;51.528;7.240;2022-08-21T11:14:33;23.20;99.90
23259;DHT22;11798;51.528;7.240;2022-08-21T11:17:09;23.20;99.90
23259;DHT22;11798;51.528;7.240;2022-08-21T11:19:54;23.40;99.90
23259;DHT22;11798;51.528;7.240;2022-08-21T11:22:37;23.40;99.90
23259;DHT22;11798;51.528;7.240;2022-08-21T11:28:13;23.60;99.90
23259;DHT22;11798;51.528;7.240;2022-08-21T11:36:50;23.60;99.90
23259;DHT22;11798;51.528;7.240;2022-08-21T11:39:27;23.50;99.90
23259;DHT22;11798;51.528;7.240;2022-08-21T11:42:04;23.60;99.90
23259;DHT22;11798;51.528;7.240;2022-08-21T11:44:39;23.70;99.90
23259;DHT22;11798;51.528;7.240;2022-08-21T11:47:18;23.70;99.90
23259;DHT22;11798;51.528;7.240;2022-08-21T11:53:09;23.80;99.90
23259;DHT22;11798;51.528;7.240;2022-08-21T11:55:49;23.70;99.90
23259;DHT22;11798;51.528;7.240;2022-08-21T11:58:22;23.50;99.90
23259;DHT22;11798;51.528;7.240;2022-08-21T12:00:58;23.60;99.90
23259;DHT22;11798;51.528;7.240;2022-08-21T12:03:34;23.60;99.90
23259;DHT22;11798;51.528;7.240;2022-08-21T12:06:09;23.70;99.90
23259;DHT22;11798;51.528;7.240;2022-08-21T12:08:37;23.80;99.90
23259;DHT22;11798;51.528;7.240;2022-08-21T12:11:07;24.00;99.90
23259;DHT22;11798;51.528;7.240;2022-08-21T12:13:40;24.00;99.90
23259;DHT22;11798;51.528;7.240;2022-08-21T12:18:33;23.80;99.90
23259;DHT22;11798;51.528;7.240;2022-08-21T12:21:16;23.70;99.90
23259;DHT22;11798;51.528;7.240;2022-08-21T12:23:59;23.80;99.90
23259;DHT22;11798;51.528;7.240;2022-08-21T12:26:47;23.70;99.90
23259;DHT22;11798;51.528;7.240;2022-08-21T12:29:32;23.70;99.90
23259;DHT22;11798;51.528;7.240;2022-08-21T12:35:02;23.70;99.90
23259;DHT22;11798;51.528;7.240;2022-08-21T12:40:04;23.80;99.90
23259;DHT22;11798;51.528;7.240;2022-08-21T12:42:46;23.90;99.90
23259;DHT22;11798;51.528;7.240;2022-08-21T12:45:42;24.00;99.90
23259;DHT22;11798;51.528;7.240;2022-08-21T12:51:16;23.80;99.90
23259;DHT22;11798;51.528;7.240;2022-08-21T12:53:53;23.80;99.90
23259;DHT22;11798;51.528;7.240;2022-08-21T12:56:22;23.90;99.90
23259;DHT22;11798;51.528;7.240;2022-08-21T12:58:50;24.10;99.90
23259;DHT22;11798;51.528;7.240;2022-08-21T13:01:25;24.20;99.90
23259;DHT22;11798;51.528;7.240;2022-08-21T13:03:54;24.20;99.90
23259;DHT22;11798;51.528;7.240;2022-08-21T13:06:22;24.20;99.90
23259;DHT22;11798;51.528;7.240;2022-08-21T13:08:52;24.20;99.90
23259;DHT22;11798;51.528;7.240;2022-08-21T13:11:20;24.20;99.90
23259;DHT22;11798;51.528;7.240;2022-08-21T13:13:51;24.20;99.90
23259;DHT22;11798;51.528;7.240;2022-08-21T13:16:22;24.10;99.90
23259;DHT22;11798;51.528;7.240;2022-08-21T13:19:07;24.20;99.90
23259;DHT22;11798;51.528;7.240;2022-08-21T13:21:43;24.10;99.90
23259;DHT22;11798;51.528;7.240;2022-08-21T13:26:46;24.00;99.90
23259;DHT22;11798;51.528;7.240;2022-08-21T13:29:16;24.00;99.90
23259;DHT22;11798;51.528;7.240;2022-08-21T13:31:54;24.10;99.90
23259;DHT22;11798;51.528;7.240;2022-08-21T13:34:24;24.10;99.90
23259;DHT22;11798;51.528;7.240;2022-08-21T13:36:54;24.20;99.90
23259;DHT22;11798;51.528;7.240;2022-08-21T13:39:21;24.20;99.90
23259;DHT22;11798;51.528;7.240;2022-08-21T13:41:50;24.30;99.90
23259;DHT22;11798;51.528;7.240;2022-08-21T13:44:21;24.20;99.90
23259;DHT22;11798;51.528;7.240;2022-08-21T13:46:52;24.10;99.90
23259;DHT22;11798;51.528;7.240;2022-08-21T13:49:20;24.10;99.90
23259;DHT22;11798;51.528;7.240;2022-08-21T13:51:48;24.00;99.90
23259;DHT22;11798;51.528;7.240;2022-08-21T13:54:26;23.90;99.90
23259;DHT22;11798;51.528;7.240;2022-08-21T13:56:53;23.80;99.90
23259;DHT22;11798;51.528;7.240;2022-08-21T13:59:33;23.70;99.90
23259;DHT22;11798;51.528;7.240;2022-08-21T14:02:01;23.80;99.90
23259;DHT22;11798;51.528;7.240;2022-08-21T14:04:33;23.60;99.90
23259;DHT22;11798;51.528;7.240;2022-08-21T14:07:00;23.70;99.90
23259;DHT22;11798;51.528;7.240;2022-08-21T14:11:56;23.90;99.90
23259;DHT22;11798;51.528;7.240;2022-08-21T14:14:29;23.90;99.90
23259;DHT22;11798;51.528;7.240;2022-08-21T14:17:02;23.90;99.90
23259;DHT22;11798;51.528;7.240;2022-08-21T14:19:43;23.80;99.90
23259;DHT22;11798;51.528;7.240;2022-08-21T14:24:48;24.00;99.90
23259;DHT22;11798;51.528;7.240;2022-08-21T14:27:17;23.90;99.90
23259;DHT22;11798;51.528;7.240;2022-08-21T14:29:44;24.00;99.90
23259;DHT22;11798;51.528;7.240;2022-08-21T14:32:37;24.00;99.90
23259;DHT22;11798;51.528;7.240;2022-08-21T14:35:03;24.00;99.90
23259;DHT22;11798;51.528;7.240;2022-08-21T14:37:29;24.00;99.90
23259;DHT22;11798;51.528;7.240;2022-08-21T14:39:54;24.00;99.90
23259;DHT22;11798;51.528;7.240;2022-08-21T14:42:20;24.10;99.90
23259;DHT22;11798;51.528;7.240;2022-08-21T14:44:46;24.10;99.90
23259;DHT22;11798;51.528;7.240;2022-08-21T14:47:11;24.10;99.90
23259;DHT22;11798;51.528;7.240;2022-08-21T14:49:37;24.00;99.90
23259;DHT22;11798;51.528;7.240;2022-08-21T14:52:03;24.00;99.90
23259;DHT22;11798;51.528;7.240;2022-08-21T14:54:30;24.10;99.90
23259;DHT22;11798;51.528;7.240;2022-08-21T14:56:57;24.10;99.90
23259;DHT22;11798;51.528;7.240;2022-08-21T14:59:24;24.20;99.90
23259;DHT22;11798;51.528;7.240;2022-08-21T15:01:51;24.20;99.90
23259;DHT22;11798;51.528;7.240;2022-08-21T15:04:17;24.20;99.90
23259;DHT22;11798;51.528;7.240;2022-08-21T15:06:43;24.20;99.90
23259;DHT22;11798;51.528;7.240;2022-08-21T15:09:08;24.20;99.90
23259;DHT22;11798;51.528;7.240;2022-08-21T15:11:34;24.20;99.90
23259;DHT22;11798;51.528;7.240;2022-08-21T15:14:02;24.10;99.90
23259;DHT22;11798;51.528;7.240;2022-08-21T15:16:29;24.20;99.90
23259;DHT22;11798;51.528;7.240;2022-08-21T15:18:57;24.40;99.90
23259;DHT22;11798;51.528;7.240;2022-08-21T15:21:23;24.70;99.90
23259;DHT22;11798;51.528;7.240;2022-08-21T15:23:48;24.90;99.90
23259;DHT22;11798;51.528;7.240;2022-08-21T15:26:14;25.20;99.90
23259;DHT22;11798;51.528;7.240;2022-08-21T15:28:40;25.40;99.90
23259;DHT22;11798;51.528;7.240;2022-08-21T15:31:06;25.50;99.90
23259;DHT22;11798;51.528;7.240;2022-08-21T15:33:32;25.80;99.90
23259;DHT22;11798;51.528;7.240;2022-08-21T15:35:58;26.00;99.90
23259;DHT22;11798;51.528;7.240;2022-08-21T15:38:24;25.80;99.90
23259;DHT22;11798;51.528;7.240;2022-08-21T15:40:50;25.80;99.90
23259;DHT22;11798;51.528;7.240;2022-08-21T15:43:25;25.90;99.90
23259;DHT22;11798;51.528;7.240;2022-08-21T15:45:51;26.10;99.90
23259;DHT22;11798;51.528;7.240;2022-08-21T15:48:17;25.90;99.90
23259;DHT22;11798;51.528;7.240;2022-08-21T15:50:43;26.00;99.90
23259;DHT22;11798;51.528;7.240;2022-08-21T15:53:08;26.00;99.90
23259;DHT22;11798;51.528;7.240;2022-08-21T15:55:34;26.00;99.90
23259;DHT22;11798;51.528;7.240;2022-08-21T15:58:00;25.90;99.90
23259;DHT22;11798;51.528;7.240;2022-08-21T16:00:26;25.90;99.90
23259;DHT22;11798;51.528;7.240;2022-08-21T16:02:55;25.70;99.90
23259;DHT22;11798;51.528;7.240;2022-08-21T16:05:22;25.70;99.90
23259;DHT22;11798;51.528;7.240;2022-08-21T16:07:49;25.70;99.90
23259;DHT22;11798;51.528;7.240;2022-08-21T16:10:17;25.80;99.90
23259;DHT22;11798;51.528;7.240;2022-08-21T16:12:57;25.70;99.90
23259;DHT22;11798;51.528;7.240;2022-08-21T16:15:24;25.70;99.90
23259;DHT22;11798;51.528;7.240;2022-08-21T16:17:51;25.50;99.90
23259;DHT22;11798;51.528;7.240;2022-08-21T16:20:22;25.60;99.90
23259;DHT22;11798;51.528;7.240;2022-08-21T16:22:49;25.50;99.90
23259;DHT22;11798;51.528;7.240;2022-08-21T16:25:16;25.40;99.90
23259;DHT22;11798;51.528;7.240;2022-08-21T16:27:44;25.30;99.90
23259;DHT22;11798;51.528;7.240;2022-08-21T16:30:11;25.30;99.90
23259;DHT22;11798;51.528;7.240;2022-08-21T16:32:37;25.30;99.90
23259;DHT22;11798;51.528;7.240;2022-08-21T16:35:03;25.20;99.90
23259;DHT22;11798;51.528;7.240;2022-08-21T16:37:29;25.10;99.90
23259;DHT22;11798;51.528;7.240;2022-08-21T16:39:54;25.10;99.90
23259;DHT22;11798;51.528;7.240;2022-08-21T16:42:23;25.00;99.90
23259;DHT22;11798;51.528;7.240;2022-08-21T16:44:50;25.00;99.90
23259;DHT22;11798;51.528;7.240;2022-08-21T16:47:16;24.90;99.90
23259;DHT22;11798;51.528;7.240;2022-08-21T16:49:42;24.80;99.90
23259;DHT22;11798;51.528;7.240;2022-08-21T16:52:08;24.60;99.90
23259;DHT22;11798;51.528;7.240;2022-08-21T16:54:33;24.70;99.90
23259;DHT22;11798;51.528;7.240;2022-08-21T16:56:59;24.60;99.90
23259;DHT22;11798;51.528;7.240;2022-08-21T16:59:25;24.50;99.90
23259;DHT22;11798;51.528;7.240;2022-08-21T17:01:52;24.50;99.90
23259;DHT22;11798;51.528;7.240;2022-08-21T17:04:18;24.40;99.90
23259;DHT22;11798;51.528;7.240;2022-08-21T17:06:44;24.40;99.90
23259;DHT22;11798;51.528;7.240;2022-08-21T17:09:10;24.40;99.90
23259;DHT22;11798;51.528;7.240;2022-08-21T17:11:42;24.40;99.90
23259;DHT22;11798;51.528;7.240;2022-08-21T17:14:18;24.20;99.90
23259;DHT22;11798;51.528;7.240;2022-08-21T17:16:47;24.10;99.90
23259;DHT22;11798;51.528;7.240;2022-08-21T17:19:14;24.10;99.90
23259;DHT22;11798;51.528;7.240;2022-08-21T17:21:40;24.00;99.90
23259;DHT22;11798;51.528;7.240;2022-08-21T17:24:06;23.90;99.90
23259;DHT22;11798;51.528;7.240;2022-08-21T17:26:32;23.80;99.90
23259;DHT22;11798;51.528;7.240;2022-08-21T17:28:57;23.80;99.90
23259;DHT22;11798;51.528;7.240;2022-08-21T17:31:23;23.70;99.90
23259;DHT22;11798;51.528;7.240;2022-08-21T17:33:51;23.70;99.90
23259;DHT22;11798;51.528;7.240;2022-08-21T17:36:19;23.60;99.90
23259;DHT22;11798;51.528;7.240;2022-08-21T17:38:45;23.60;99.90
23259;DHT22;11798;51.528;7.240;2022-08-21T17:41:10;23.50;99.90